Terminal Aerodrome Forecast
Issued by NWS Brownsville, TX

Home | Current Version | Previous Version | Text Only | Print | Product List | Glossary On
Versions: 1 2 3 4 5 6 7 8 9 10 11 12 13 14 15 16 17 18 19 20 21 22 23 24 25 26 27 28 29 30
452
FTUS44 KBRO 270657 AAC
TAFBRO
TAF AMD
KBRO 270657Z 2707/2806 13017G24KT P6SM SCT110
     FM270900 15012KT P6SM VCSH OVC025
     FM271500 15018G24KT P6SM SCT025 BKN040
     FM280000 14016KT P6SM SCT040 BKN250=

USA.gov is the U.S. government's official web portal to all federal, state and local government web resources and services.